Airfield :
LOGIN :

Register | Disclaimer

   EN    FR    IT 

 










Legend :    VFR   Marginal VFR   IFR   Intensive IFR   Very Intensive IFR
Visi :
Ceiling :
>= 8 km
>= 3000ft
5 to 8 km
1000 to 3000 ft
1500m to 5 km
500 to 1000 ft
800 to 1500m
200 to 500 ft
< 800m
< 200 ft
Symbols :   Thunderstorms  Fog  Heavy snow  Heavy precipitations  Wind > 20 kt
SIGMETs :     Misc.  Thunderstorms  Icing  Turbulence  Mountain Waves  Volcanic Ashes







- Airport Elevation : 1267 ft
- IATA code : CUF


LIMZ - Cuneo Levaldigi

CURRENT METAR :
  • 211350Z 35006KT 9999 SCT080 07/M07 Q1008

EXPIRED METARs :
  • 211250Z 30006KT 9999 SCT080 07/M05 Q1009

TAF TAF LIMZ
Valid from the 21 at 12:00 until the 22 at 12:00 UTC


211100Z 2112/2212 VRB05KT 9999 SCT035
No reported NOTAMs for that airfield.
2 SIGMETs reported for the Milano FIR (LIMM) :
 
Severe turbulence
LIMM SIGMET 5 VALID 211415/211815 LIIP
LIMM MILANO FIR SEV TURB FCST NW OF LINE N4706 E01136 - N4343 E00721 FL240/360 STNR NC=
Severe turbulence
LIMM SIGMET 4 VALID 211015/211415 LIIP
LIMM MILANO FIR SEV TURB FCST NW OF LINE N4706 E01136 - N4343 E00721 FL240/360 STNR NC=



MET'MAP, your aeronautical weather chart ! - Copyright ORBIFLY December 2007 - Disclaimer

ORBIFLY MET'MAP TEAM :

Programming & Development : Alexandra Zaïnal
Concept & Development : Baudouin d'Aumeries
Co-Development & Prog : Marc-Olivier Méhu
Technical & hardware support : Manuel Goepfert

Contact : metmap@orbifly.com




SOURCES & CREDITS :

   NOAA